Time;durP1;ratioP1;P1;durP2;ratioP2;P2;SDS_P1;SDS_P2;PMS_P1;PMS_P2;Temp;Humidity;BMP_temperature;BMP_pressure;BME280_temperature;BME280_humidity;BME280_pressure;Samples;Min_cycle;Max_cycle;Signal;HPM_P1;HPM_P2
2023/03/15 00:00:18;;;;;;;17.88;2.42;;;;;;;-1.00;100.00;100095.22;6210736;23;20039;-65
2023/03/15 00:02:44;;;;;;;18.83;2.90;;;;;;;-1.10;100.00;100096.78;6175058;23;20021;-65
2023/03/15 00:05:14;;;;;;;24.48;2.03;;;;;;;-1.08;100.00;100088.78;6208019;23;20024;-66
2023/03/15 00:07:40;;;;;;;19.30;1.80;;;;;;;-1.10;100.00;100098.56;6211491;23;20107;-64
2023/03/15 00:10:07;;;;;;;10.60;2.28;;;;;;;-1.15;100.00;100104.97;6211358;23;20544;-63
2023/03/15 00:12:34;;;;;;;12.85;2.13;;;;;;;-1.05;100.00;100107.88;6211260;23;20357;-65
2023/03/15 00:15:00;;;;;;;20.45;3.08;;;;;;;-1.16;100.00;100111.19;6211808;23;20104;-65
2023/03/15 00:17:27;;;;;;;19.48;2.80;;;;;;;-1.15;100.00;100123.41;6211404;23;20020;-64
2023/03/15 00:19:53;;;;;;;20.50;2.33;;;;;;;-1.15;100.00;100126.03;6211727;23;20051;-63
2023/03/15 00:22:22;;;;;;;17.58;2.55;;;;;;;-1.14;100.00;100140.03;6210455;23;20028;-64
2023/03/15 00:24:48;;;;;;;21.27;2.47;;;;;;;-1.13;100.00;100139.09;6210876;23;20024;-65
2023/03/15 00:27:15;;;;;;;13.23;2.45;;;;;;;-1.16;100.00;100141.91;6210354;23;20044;-64
2023/03/15 00:29:41;;;;;;;17.85;2.63;;;;;;;-1.25;100.00;100148.63;6211205;23;20349;-65
2023/03/15 00:32:08;;;;;;;22.02;2.80;;;;;;;-1.12;100.00;100153.97;6171648;23;20067;-63
2023/03/15 00:34:34;;;;;;;14.10;2.30;;;;;;;-1.26;100.00;100154.84;6211303;23;20029;-65
2023/03/15 00:37:01;;;;;;;12.45;2.05;;;;;;;-1.26;100.00;100156.63;6211556;23;20059;-64
2023/03/15 00:39:28;;;;;;;21.70;3.03;;;;;;;-1.17;100.00;100163.94;6212086;23;20079;-63
2023/03/15 00:41:55;;;;;;;13.52;2.78;;;;;;;-1.26;100.00;100175.91;6210851;23;20020;-64
2023/03/15 00:44:23;;;;;;;22.02;3.42;;;;;;;-1.14;100.00;100169.84;6211574;23;20020;-64
2023/03/15 00:46:50;;;;;;;15.38;1.75;;;;;;;-1.26;100.00;100170.63;6211229;23;20060;-65
2023/03/15 00:49:17;;;;;;;18.02;2.28;;;;;;;-1.22;100.00;100174.75;6212128;23;20048;-64
2023/03/15 00:51:43;;;;;;;17.10;2.10;;;;;;;-1.25;100.00;100182.00;6210941;23;20082;-71
2023/03/15 00:54:12;;;;;;;15.07;2.30;;;;;;;-1.25;100.00;100179.38;6211136;23;20021;-70
2023/03/15 00:56:40;;;;;;;11.75;2.33;;;;;;;-1.27;100.00;100179.47;6212165;23;20027;-70
2023/03/15 00:59:07;;;;;;;22.20;2.92;;;;;;;-1.33;100.00;100177.25;6211802;23;20020;-70
2023/03/15 01:01:34;;;;;;;15.60;2.00;;;;;;;-1.33;100.00;100195.66;6213624;23;20587;-71
2023/03/15 01:04:00;;;;;;;14.23;2.38;;;;;;;-1.27;100.00;100189.97;6212503;23;20024;-71
2023/03/15 01:06:28;;;;;;;29.13;2.53;;;;;;;-1.31;100.00;100191.13;6212031;23;20391;-71
2023/03/15 01:08:55;;;;;;;21.60;2.45;;;;;;;-1.24;100.00;100188.94;6212460;23;20020;-72
2023/03/15 01:11:24;;;;;;;11.68;2.05;;;;;;;-1.38;100.00;100192.44;6211489;23;20361;-71
2023/03/15 01:13:52;;;;;;;13.93;1.58;;;;;;;-1.34;100.00;100201.00;6211159;23;20476;-71
2023/03/15 01:16:19;;;;;;;11.00;1.90;;;;;;;-1.32;100.00;100205.22;6211488;23;20356;-70
2023/03/15 01:18:46;;;;;;;16.67;2.42;;;;;;;-1.42;100.00;100204.97;6212315;23;20017;-71
2023/03/15 01:21:14;;;;;;;19.45;2.38;;;;;;;-1.37;100.00;100204.66;6210741;23;20031;-64
2023/03/15 01:23:41;;;;;;;16.85;1.60;;;;;;;-1.48;100.00;100210.59;6205829;23;20025;-65
2023/03/15 01:26:11;;;;;;;33.53;2.25;;;;;;;-1.45;100.00;100217.47;6209789;23;20020;-67
2023/03/15 01:28:38;;;;;;;18.73;2.17;;;;;;;-1.41;100.00;100211.06;6210277;23;20047;-65
2023/03/15 01:31:05;;;;;;;14.73;2.10;;;;;;;-1.36;100.00;100216.91;6213623;23;20044;-71
2023/03/15 01:33:31;;;;;;;20.23;2.75;;;;;;;-1.47;100.00;100222.84;6211922;23;20025;-70
2023/03/15 01:36:04;;;;;;;13.75;2.25;;;;;;;-1.47;100.00;100225.47;6212503;23;20047;-72
2023/03/15 01:38:31;;;;;;;20.38;2.33;;;;;;;-1.42;100.00;100223.38;6202463;23;20449;-70
2023/03/15 01:40:58;;;;;;;14.35;2.15;;;;;;;-1.45;100.00;100234.09;6211304;23;20024;-71
2023/03/15 01:43:27;;;;;;;14.07;1.83;;;;;;;-1.44;100.00;100230.53;6211825;23;20095;-71
2023/03/15 01:46:02;;;;;;;10.88;1.95;;;;;;;-1.42;100.00;100233.06;6210970;23;20020;-71
2023/03/15 01:48:38;;;;;;;18.30;1.80;;;;;;;-1.55;100.00;100235.59;6211148;23;20024;-72
2023/03/15 01:51:10;;;;;;;23.70;2.35;;;;;;;-1.55;100.00;100227.69;6185107;23;20044;-71
2023/03/15 01:53:41;;;;;;;19.60;2.40;;;;;;;-1.58;100.00;100230.53;6209297;23;20017;-71
2023/03/15 01:56:09;;;;;;;15.13;1.73;;;;;;;-1.49;100.00;100237.84;6212302;23;20020;-71
2023/03/15 01:58:37;;;;;;;13.20;2.03;;;;;;;-1.61;100.00;100238.63;6208388;23;20095;-71
2023/03/15 02:01:05;;;;;;;17.77;2.33;;;;;;;-1.71;100.00;100238.34;6205928;23;20103;-71
2023/03/15 02:03:38;;;;;;;21.30;2.80;;;;;;;-1.64;100.00;100246.69;6211238;23;20032;-70
2023/03/15 02:10:06;;;;;;;13.27;2.15;;;;;;;-1.65;100.00;100247.63;6208618;23;20047;-70
2023/03/15 02:12:39;;;;;;;15.35;2.00;;;;;;;-1.71;100.00;100242.75;6210611;23;20013;-72
2023/03/15 02:15:07;;;;;;;13.45;2.53;;;;;;;-1.72;100.00;100244.50;6207610;23;20023;-71
2023/03/15 02:17:43;;;;;;;17.33;2.38;;;;;;;-1.66;100.00;100256.44;6211254;23;20027;-71
2023/03/15 02:20:27;;;;;;;13.90;2.40;;;;;;;-1.79;100.00;100255.50;6210165;23;20043;-71
2023/03/15 02:22:58;;;;;;;21.77;2.90;;;;;;;-1.67;100.00;100257.41;6207970;23;20027;-64
2023/03/15 02:25:43;;;;;;;18.90;2.50;;;;;;;-1.60;100.00;100273.66;6207202;23;20496;-64
2023/03/15 02:28:13;;;;;;;16.27;2.20;;;;;;;-1.84;100.00;100263.69;6206856;23;20020;-65
2023/03/15 02:30:40;;;;;;;17.85;1.67;;;;;;;-1.73;100.00;100266.50;6209997;23;20027;-65
2023/03/15 02:33:13;;;;;;;19.08;2.65;;;;;;;-1.81;100.00;100274.00;6208158;23;20517;-64
2023/03/15 02:35:40;;;;;;;12.38;2.53;;;;;;;-1.80;100.00;100272.22;6208748;23;20417;-64
2023/03/15 02:38:06;;;;;;;11.20;2.20;;;;;;;-1.82;100.00;100272.28;6207283;23;20020;-64
2023/03/15 02:40:33;;;;;;;18.42;1.98;;;;;;;-1.78;100.00;100280.84;6210066;23;20027;-64
2023/03/15 02:43:05;;;;;;;15.55;2.90;;;;;;;-1.81;100.00;100278.44;6208253;23;20022;-64
2023/03/15 02:45:33;;;;;;;14.18;2.22;;;;;;;-1.89;100.00;100279.75;6210288;23;20029;-64
2023/03/15 02:48:04;;;;;;;18.55;2.13;;;;;;;-1.81;100.00;100279.28;6182809;23;20028;-63
2023/03/15 02:50:31;;;;;;;14.10;2.30;;;;;;;-2.00;100.00;100294.44;6163689;23;20051;-65
2023/03/15 02:52:57;;;;;;;7.65;1.45;;;;;;;-1.90;100.00;100295.59;6208525;23;20116;-63
2023/03/15 02:55:24;;;;;;;17.75;2.10;;;;;;;-1.93;100.00;100306.28;6209107;23;20024;-65
2023/03/15 02:57:50;;;;;;;15.05;1.85;;;;;;;-1.86;100.00;100315.50;6208542;23;20364;-64
2023/03/15 03:00:17;;;;;;;13.73;2.25;;;;;;;-1.95;100.00;100311.63;6207537;23;20092;-64
2023/03/15 03:02:45;;;;;;;13.45;2.50;;;;;;;-1.89;100.00;100313.91;6208383;23;20096;-64
2023/03/15 03:05:14;;;;;;;20.67;2.63;;;;;;;-1.87;100.00;100311.19;6208157;23;20124;-67
2023/03/15 03:07:43;;;;;;;22.52;2.47;;;;;;;-1.94;100.00;100318.59;6211058;23;20031;-66
2023/03/15 03:10:13;;;;;;;15.63;2.67;;;;;;;-1.94;100.00;100323.00;6209269;23;20525;-65
2023/03/15 03:12:39;;;;;;;12.02;2.22;;;;;;;-1.93;100.00;100320.25;6210571;23;20099;-65
2023/03/15 03:15:07;;;;;;;15.25;2.20;;;;;;;-1.90;100.00;100320.09;6210384;23;20545;-64
2023/03/15 03:17:37;;;;;;;16.90;1.73;;;;;;;-1.91;100.00;100325.44;6209970;23;20021;-65
2023/03/15 03:20:10;;;;;;;18.70;2.72;;;;;;;-1.91;100.00;100323.66;6210371;23;20127;-65
2023/03/15 03:22:36;;;;;;;31.33;2.95;;;;;;;-1.90;100.00;100327.13;6211778;23;20025;-63
2023/03/15 03:25:05;;;;;;;14.30;2.20;;;;;;;-1.98;100.00;100334.63;6211895;23;20532;-63
2023/03/15 03:27:35;;;;;;;21.92;2.58;;;;;;;-1.93;100.00;100337.81;6211550;23;20083;-66
2023/03/15 03:30:07;;;;;;;18.17;1.92;;;;;;;-2.17;100.00;100342.72;6212500;23;20082;-64
2023/03/15 03:32:33;;;;;;;21.40;2.20;;;;;;;-2.18;100.00;100349.75;6212839;23;20027;-64
2023/03/15 03:35:00;;;;;;;17.50;2.35;;;;;;;-2.17;100.00;100345.34;6212143;23;20516;-64
2023/03/15 03:37:29;;;;;;;12.32;2.08;;;;;;;-2.19;100.00;100344.59;6211008;23;20535;-64
2023/03/15 03:39:56;;;;;;;19.00;2.80;;;;;;;-2.22;100.00;100347.41;6211496;23;20127;-64
2023/03/15 03:42:23;;;;;;;14.60;2.17;;;;;;;-2.13;100.00;100350.34;6212043;23;20047;-64
2023/03/15 03:44:50;;;;;;;19.17;2.85;;;;;;;-2.29;100.00;100351.31;6157381;23;20349;-64
2023/03/15 03:47:16;;;;;;;11.77;2.60;;;;;;;-2.23;100.00;100358.84;6211203;23;20020;-64
2023/03/15 03:49:43;;;;;;;16.45;2.38;;;;;;;-2.26;100.00;100361.66;6210255;23;20031;-64
2023/03/15 03:52:09;;;;;;;17.05;2.72;;;;;;;-2.29;100.00;100361.81;6211270;23;20059;-65
2023/03/15 03:54:36;;;;;;;14.68;2.40;;;;;;;-2.29;100.00;100372.34;6211421;23;20027;-64
2023/03/15 03:57:03;;;;;;;18.88;2.72;;;;;;;-2.22;100.00;100378.94;6211957;23;20031;-65
2023/03/15 03:59:29;;;;;;;19.20;2.63;;;;;;;-2.30;100.00;100381.13;6198700;23;20364;-65
2023/03/15 04:01:56;;;;;;;11.65;1.77;;;;;;;-2.34;100.00;100386.59;6211563;23;20095;-65
2023/03/15 04:04:25;;;;;;;16.23;2.22;;;;;;;-2.27;100.00;100391.47;6211423;23;20024;-66
2023/03/15 04:06:53;;;;;;;17.25;2.47;;;;;;;-2.37;100.00;100394.63;6211566;23;20020;-66
2023/03/15 04:09:20;;;;;;;11.32;2.15;;;;;;;-2.44;100.00;100381.91;6213848;23;20048;-64
2023/03/15 04:11:47;;;;;;;15.32;2.40;;;;;;;-2.46;100.00;100387.25;6212307;23;20034;-64
2023/03/15 04:14:14;;;;;;;12.50;2.35;;;;;;;-2.50;100.00;100391.00;6211838;23;20027;-64
2023/03/15 04:16:40;;;;;;;15.75;2.60;;;;;;;-2.60;100.00;100395.03;6211041;23;20100;-64
2023/03/15 04:19:07;;;;;;;12.98;2.17;;;;;;;-2.50;100.00;100398.88;6210900;23;20095;-65
2023/03/15 04:21:34;;;;;;;22.10;3.35;;;;;;;-2.52;100.00;100398.09;6211230;23;20461;-65
2023/03/15 04:24:01;;;;;;;14.43;2.35;;;;;;;-2.52;100.00;100402.50;6212178;23;20021;-65
2023/03/15 04:26:28;;;;;;;18.75;2.65;;;;;;;-2.47;100.00;100411.84;6195608;23;20636;-66
2023/03/15 04:28:57;;;;;;;17.98;2.50;;;;;;;-2.48;100.00;100409.28;6186618;23;20020;-65
2023/03/15 04:31:27;;;;;;;15.13;2.40;;;;;;;-2.52;100.00;100415.63;6211912;23;20034;-63
2023/03/15 04:33:55;;;;;;;18.42;2.58;;;;;;;-2.56;100.00;100420.22;6211759;23;20511;-63
2023/03/15 04:36:22;;;;;;;14.80;2.67;;;;;;;-2.54;100.00;100420.97;6211879;23;20323;-68
2023/03/15 04:38:49;;;;;;;13.85;2.20;;;;;;;-2.52;100.00;100421.72;6212434;23;20013;-63
2023/03/15 04:41:16;;;;;;;13.63;2.70;;;;;;;-2.56;100.00;100428.09;6211605;23;20017;-64
2023/03/15 04:43:44;;;;;;;22.92;2.72;;;;;;;-2.53;100.00;100421.81;6211579;23;20044;-65
2023/03/15 04:46:10;;;;;;;14.70;2.70;;;;;;;-2.52;100.00;100416.47;6212769;23;20020;-70
2023/03/15 04:48:37;;;;;;;21.70;3.33;;;;;;;-2.54;100.00;100415.72;6212846;23;20028;-69
2023/03/15 04:51:04;;;;;;;9.93;2.70;;;;;;;-2.62;100.00;100431.03;6213157;23;20040;-70
2023/03/15 04:53:30;;;;;;;16.48;3.50;;;;;;;-2.71;100.00;100437.66;6211506;23;20099;-71
2023/03/15 04:55:57;;;;;;;22.20;2.88;;;;;;;-2.64;100.00;100435.53;6212629;23;20016;-70
2023/03/15 04:58:23;;;;;;;22.73;2.88;;;;;;;-2.70;100.00;100441.97;6212364;23;20028;-68
2023/03/15 05:00:52;;;;;;;16.05;3.20;;;;;;;-2.78;100.00;100443.31;6213251;23;20021;-71
2023/03/15 05:03:19;;;;;;;18.23;2.88;;;;;;;-2.78;100.00;100451.19;6212941;23;20099;-71
2023/03/15 05:05:45;;;;;;;18.50;2.75;;;;;;;-2.83;100.00;100451.41;6212666;23;20407;-71
2023/03/15 05:08:12;;;;;;;25.35;3.20;;;;;;;-2.86;100.00;100451.56;6212210;23;20095;-71
2023/03/15 05:10:38;;;;;;;22.00;3.50;;;;;;;-2.83;100.00;100452.25;6194969;23;20028;-71
2023/03/15 05:13:05;;;;;;;19.63;3.47;;;;;;;-2.78;100.00;100464.31;6188987;23;20016;-71
2023/03/15 05:15:32;;;;;;;25.33;3.38;;;;;;;-2.84;100.00;100466.31;6212718;23;20035;-71
2023/03/15 05:17:58;;;;;;;18.08;2.80;;;;;;;-2.94;100.00;100470.34;6211414;23;20021;-71
2023/03/15 05:20:25;;;;;;;17.33;2.20;;;;;;;-2.88;100.00;100471.81;6205999;23;20024;-70
2023/03/15 05:22:54;;;;;;;27.52;3.67;;;;;;;-2.88;100.00;100488.41;6211658;23;20092;-71
2023/03/15 05:25:21;;;;;;;18.33;3.20;;;;;;;-2.85;100.00;100483.00;6212754;23;20028;-71
2023/03/15 05:27:48;;;;;;;19.00;2.63;;;;;;;-2.83;100.00;100483.75;6203926;23;20350;-71
2023/03/15 05:30:15;;;;;;;18.00;2.83;;;;;;;-2.81;100.00;100486.31;6212761;23;20020;-70
2023/03/15 05:32:43;;;;;;;17.27;2.95;;;;;;;-2.68;100.00;100492.63;6211660;23;20025;-71
2023/03/15 05:35:11;;;;;;;16.15;2.70;;;;;;;-2.67;100.00;100498.72;6211554;23;20452;-71
2023/03/15 05:37:38;;;;;;;12.30;2.38;;;;;;;-2.70;100.00;100504.13;6211050;23;20026;-70
2023/03/15 05:40:07;;;;;;;16.52;2.80;;;;;;;-2.76;100.00;100513.16;6211106;23;20020;-69
2023/03/15 05:42:33;;;;;;;23.08;2.97;;;;;;;-2.59;100.00;100509.66;6210784;23;20473;-71
2023/03/15 05:45:00;;;;;;;28.25;3.25;;;;;;;-2.63;100.00;100513.38;6196340;23;20023;-69
2023/03/15 05:47:26;;;;;;;22.05;2.90;;;;;;;-2.64;100.00;100515.16;6211340;23;20020;-72
2023/03/15 05:49:53;;;;;;;20.15;3.83;;;;;;;-2.69;100.00;100518.94;6212078;23;20027;-70
2023/03/15 05:52:20;;;;;;;20.42;3.60;;;;;;;-2.51;100.00;100522.38;6211134;23;20031;-70
2023/03/15 05:54:46;;;;;;;26.15;3.40;;;;;;;-2.41;100.00;100531.47;6211468;23;20103;-64
2023/03/15 05:57:12;;;;;;;24.38;3.72;;;;;;;-2.49;100.00;100531.88;6211678;23;20107;-64
2023/03/15 05:59:39;;;;;;;24.73;3.72;;;;;;;-2.42;100.00;100533.25;6211542;23;20025;-64
2023/03/15 06:02:06;;;;;;;17.70;3.05;;;;;;;-2.35;100.00;100542.50;6211884;23;20357;-63
2023/03/15 06:04:32;;;;;;;18.60;3.40;;;;;;;-2.19;100.00;100552.22;6210086;23;20034;-63
2023/03/15 06:06:59;;;;;;;15.32;4.07;;;;;;;-2.03;100.00;100553.06;6210296;23;20032;-64
2023/03/15 06:09:26;;;;;;;13.45;2.53;;;;;;;-2.14;100.00;100552.81;6209920;23;20020;-66
2023/03/15 06:11:52;;;;;;;16.67;2.78;;;;;;;-2.05;100.00;100560.19;6210721;23;20051;-64
2023/03/15 06:14:19;;;;;;;21.15;2.72;;;;;;;-2.07;100.00;100567.31;6210567;23;20032;-65
2023/03/15 06:16:45;;;;;;;11.95;2.20;;;;;;;-2.01;100.00;100566.97;6210715;23;20111;-65
2023/03/15 06:19:12;;;;;;;22.25;2.60;;;;;;;-1.98;100.00;100571.22;6210082;23;20024;-64
2023/03/15 06:21:38;;;;;;;20.38;2.80;;;;;;;-1.96;100.00;100585.97;6210379;23;20047;-64
2023/03/15 06:24:06;;;;;;;17.67;2.88;;;;;;;-1.86;100.00;100587.16;6210129;23;20104;-65
2023/03/15 06:26:32;;;;;;;13.02;2.95;;;;;;;-1.81;100.00;100592.19;6128229;23;20113;-65
2023/03/15 06:28:59;;;;;;;13.57;2.40;;;;;;;-1.77;100.00;100590.25;6150409;23;20024;-65
2023/03/15 06:31:26;;;;;;;22.13;3.30;;;;;;;-1.78;100.00;100594.66;6148990;23;20462;-68
2023/03/15 06:33:52;;;;;;;14.50;3.00;;;;;;;-1.81;100.00;100594.81;6151155;23;20044;-64
2023/03/15 06:36:19;;;;;;;15.48;2.88;;;;;;;-1.69;100.00;100603.81;6151467;23;20035;-64
2023/03/15 06:38:45;;;;;;;11.40;2.60;;;;;;;-1.56;100.00;100602.19;6150805;23;20428;-66
2023/03/15 06:41:14;;;;;;;18.13;2.58;;;;;;;-1.58;100.00;100606.69;6150772;23;20048;-64
2023/03/15 06:43:41;;;;;;;13.77;2.95;;;;;;;-1.47;100.00;100609.59;6149802;23;20025;-63
2023/03/15 06:46:07;;;;;;;21.95;2.85;;;;;;;-1.44;100.00;100614.69;6150546;23;20044;-64
2023/03/15 06:48:34;;;;;;;18.20;2.10;;;;;;;-1.42;100.00;100618.06;6152275;23;20057;-66
2023/03/15 06:51:00;;;;;;;29.73;3.45;;;;;;;-1.16;100.00;100623.63;6150968;23;20022;-65
2023/03/15 06:53:27;;;;;;;18.33;2.63;;;;;;;-1.23;100.00;100627.53;6150221;23;20443;-64
2023/03/15 06:55:53;;;;;;;24.95;2.90;;;;;;;-0.99;100.00;100631.44;6151422;23;20021;-64
2023/03/15 06:58:21;;;;;;;33.65;4.40;;;;;;;-0.93;100.00;100638.97;6152428;23;20025;-66
2023/03/15 07:00:48;;;;;;;18.05;3.40;;;;;;;-1.18;100.00;100636.88;6142992;23;20018;-65
2023/03/15 07:03:15;;;;;;;17.20;3.30;;;;;;;-1.12;100.00;100633.06;6150234;23;20013;-63
2023/03/15 07:05:41;;;;;;;16.98;2.95;;;;;;;-1.22;100.00;100639.78;6150354;23;20100;-64
2023/03/15 07:08:08;;;;;;;15.48;3.35;;;;;;;-1.25;100.00;100645.22;6153072;23;20097;-64
2023/03/15 07:10:35;;;;;;;16.45;2.70;;;;;;;-1.14;100.00;100650.72;6151706;23;20026;-64
2023/03/15 07:13:03;;;;;;;17.85;2.58;;;;;;;-1.18;100.00;100646.56;6152173;23;20022;-63
2023/03/15 07:15:29;;;;;;;16.40;3.38;;;;;;;-1.15;100.00;100644.63;6153535;23;20022;-65
2023/03/15 07:17:56;;;;;;;20.95;3.00;;;;;;;-1.18;100.00;100655.31;6147245;23;20061;-64
2023/03/15 07:20:22;;;;;;;16.45;3.15;;;;;;;-1.26;100.00;100647.00;6153196;23;20104;-64
2023/03/15 07:22:49;;;;;;;24.55;3.15;;;;;;;-1.18;100.00;100650.06;6152236;23;20021;-63
2023/03/15 07:25:22;;;;;;;12.30;2.35;;;;;;;-1.00;100.00;100645.53;6181170;23;20104;-64
2023/03/15 07:27:49;;;;;;;23.30;3.50;;;;;;;-0.84;100.00;100660.47;6211162;23;20040;-65
2023/03/15 07:30:17;;;;;;;25.40;3.30;;;;;;;-0.78;100.00;100660.94;6210590;23;20021;-65
2023/03/15 07:32:43;;;;;;;17.05;3.03;;;;;;;-0.63;100.00;100658.38;6212280;23;20496;-71
2023/03/15 07:35:10;;;;;;;23.63;3.58;;;;;;;-0.55;100.00;100646.41;6212674;23;20020;-71
2023/03/15 07:37:39;;;;;;;16.05;3.00;;;;;;;-0.50;100.00;100659.34;6212837;23;20016;-71
2023/03/15 07:40:11;;;;;;;12.05;2.85;;;;;;;-0.32;100.00;100660.88;6213344;23;20027;-71
2023/03/15 07:42:39;;;;;;;12.25;3.47;;;;;;;-0.29;100.00;100659.84;6211654;23;20028;-71
2023/03/15 07:45:07;;;;;;;15.45;2.75;;;;;;;-0.15;100.00;100665.13;6213327;23;20027;-72
2023/03/15 07:47:34;;;;;;;15.05;3.75;;;;;;;-0.12;100.00;100664.09;6213859;23;20489;-72
2023/03/15 07:50:01;;;;;;;21.48;3.20;;;;;;;0.12;100.00;100672.28;6212939;23;20017;-72
2023/03/15 07:52:27;;;;;;;22.10;4.05;;;;;;;0.23;100.00;100672.50;6215155;23;20035;-72
2023/03/15 07:54:53;;;;;;;16.95;2.80;;;;;;;0.48;100.00;100666.53;6213641;23;20020;-73
2023/03/15 07:57:20;;;;;;;21.35;3.40;;;;;;;0.69;100.00;100677.53;6214220;23;20468;-72
2023/03/15 07:59:46;;;;;;;23.08;3.90;;;;;;;0.71;100.00;100673.84;6212948;23;20023;-72
2023/03/15 08:02:14;;;;;;;14.27;2.50;;;;;;;0.42;100.00;100685.38;6213083;23;20024;-72
2023/03/15 08:04:40;;;;;;;11.60;2.88;;;;;;;0.53;100.00;100681.13;6213650;23;20059;-73
2023/03/15 08:07:07;;;;;;;23.05;3.33;;;;;;;0.58;100.00;100686.13;6214215;23;20453;-72
2023/03/15 08:09:33;;;;;;;23.05;3.35;;;;;;;0.34;100.00;100687.66;6214228;23;20398;-73
2023/03/15 08:12:00;;;;;;;20.02;3.47;;;;;;;0.42;100.00;100693.31;6213283;23;20362;-72
2023/03/15 08:14:28;;;;;;;22.25;3.92;;;;;;;0.45;100.00;100691.31;6213848;23;20021;-72
2023/03/15 08:16:54;;;;;;;15.68;2.80;;;;;;;0.49;100.00;100690.19;6187463;23;20076;-72
2023/03/15 08:19:21;;;;;;;16.90;3.58;;;;;;;0.70;100.00;100693.25;6213105;23;20030;-66
2023/03/15 08:21:47;;;;;;;22.15;3.70;;;;;;;0.87;100.00;100696.63;6211532;23;20025;-67
2023/03/15 08:24:14;;;;;;;19.00;3.40;;;;;;;0.97;100.00;100693.28;6193525;23;20345;-66
2023/03/15 08:26:43;;;;;;;27.48;4.40;;;;;;;0.80;100.00;100693.53;6171506;23;20021;-66
2023/03/15 08:29:10;;;;;;;26.20;5.80;;;;;;;0.71;100.00;100699.38;6152244;23;20301;-66
2023/03/15 08:31:36;;;;;;;24.90;3.95;;;;;;;0.67;100.00;100709.28;6151853;23;20032;-66
2023/03/15 08:34:03;;;;;;;15.02;3.30;;;;;;;0.74;100.00;100701.84;6152012;23;20028;-66
2023/03/15 08:36:31;;;;;;;18.50;3.38;;;;;;;0.62;100.00;100697.34;6150444;23;20028;-66
2023/03/15 08:38:58;;;;;;;17.00;3.17;;;;;;;0.73;100.00;100710.72;6152319;23;20045;-67
2023/03/15 08:41:24;;;;;;;23.38;4.82;;;;;;;0.75;100.00;100722.03;6151925;23;20021;-66
2023/03/15 08:43:51;;;;;;;17.08;3.60;;;;;;;0.46;100.00;100724.69;6150909;23;20104;-66
2023/03/15 08:46:20;;;;;;;15.60;3.10;;;;;;;0.36;100.00;100728.81;6152303;23;20027;-66
2023/03/15 08:48:47;;;;;;;22.15;3.53;;;;;;;0.32;100.00;100740.53;6150461;23;20431;-66
2023/03/15 08:51:13;;;;;;;14.40;3.30;;;;;;;0.44;100.00;100747.69;6152222;23;20071;-65
2023/03/15 08:53:40;;;;;;;17.73;3.63;;;;;;;0.44;100.00;100752.97;6149720;23;20110;-66
2023/03/15 08:56:07;;;;;;;16.58;4.03;;;;;;;0.38;100.00;100753.34;6152066;23;20096;-66
2023/03/15 08:58:34;;;;;;;15.80;4.15;;;;;;;0.36;100.00;100755.22;6142299;23;20024;-65
2023/03/15 09:01:00;;;;;;;20.88;3.92;;;;;;;0.28;100.00;100754.84;6151400;23;20018;-66
2023/03/15 09:03:27;;;;;;;17.50;4.70;;;;;;;0.05;100.00;100767.66;6151215;23;20025;-67
2023/03/15 09:05:57;;;;;;;18.98;4.60;;;;;;;0.42;100.00;100775.13;6140702;23;20032;-66
2023/03/15 09:08:25;;;;;;;19.25;3.97;;;;;;;0.41;100.00;100774.28;6167183;23;20025;-66
2023/03/15 09:10:56;;;;;;;17.83;4.18;;;;;;;0.65;100.00;100777.19;6151873;23;20443;-66
2023/03/15 09:13:23;;;;;;;25.42;5.15;;;;;;;0.90;100.00;100779.16;6151626;23;20034;-66
2023/03/15 09:15:54;;;;;;;24.27;6.28;;;;;;;1.62;100.00;100779.81;6150107;23;20026;-66
2023/03/15 09:18:23;;;;;;;20.02;4.43;;;;;;;1.77;100.00;100774.44;6138138;23;20029;-66
2023/03/15 09:20:49;;;;;;;15.50;3.53;;;;;;;1.87;100.00;100776.38;6149566;23;20120;-66
2023/03/15 09:23:16;;;;;;;27.08;5.45;;;;;;;1.70;100.00;100785.44;6150296;23;20021;-67
2023/03/15 09:25:42;;;;;;;13.98;3.60;;;;;;;1.60;100.00;100788.78;6189622;23;20024;-67
2023/03/15 09:28:10;;;;;;;16.25;3.35;;;;;;;1.39;100.00;100777.81;6208563;23;20055;-68
2023/03/15 09:30:38;;;;;;;16.58;3.60;;;;;;;1.59;100.00;100795.03;6209723;23;20437;-66
2023/03/15 09:33:05;;;;;;;13.57;3.67;;;;;;;1.51;100.00;100794.66;6209908;23;20021;-66
2023/03/15 09:35:32;;;;;;;15.35;3.20;;;;;;;1.64;100.00;100793.75;6208399;23;20020;-66
2023/03/15 09:37:59;;;;;;;18.02;3.72;;;;;;;1.69;100.00;100804.06;6209391;23;20027;-66
2023/03/15 09:40:32;;;;;;;10.77;3.45;;;;;;;1.42;100.00;100807.53;6208983;23;20021;-67
2023/03/15 09:43:12;;;;;;;14.48;3.65;;;;;;;1.22;100.00;100814.09;6209323;23;20096;-66
2023/03/15 09:45:48;;;;;;;16.58;3.40;;;;;;;1.31;100.00;100823.25;6170007;23;20021;-69
2023/03/15 09:48:50;;;;;;;12.77;3.30;;;;;;;2.44;100.00;100820.19;6209648;23;20016;-67
2023/03/15 09:51:40;;;;;;;11.80;3.25;;;;;;;2.96;100.00;100821.84;6182574;23;20026;-68
2023/03/15 09:54:28;;;;;;;15.50;2.88;;;;;;;3.04;100.00;100829.28;6207967;23;20462;-66
2023/03/15 09:57:01;;;;;;;16.20;3.40;;;;;;;2.80;100.00;100831.84;6208604;23;20020;-66
2023/03/15 09:59:33;;;;;;;13.50;2.85;;;;;;;1.95;100.00;100823.50;6184001;23;20529;-66
2023/03/15 10:02:14;;;;;;;14.80;2.20;;;;;;;1.58;100.00;100843.59;6208363;23;20095;-67
2023/03/15 10:04:43;;;;;;;9.82;2.08;;;;;;;1.49;100.00;100837.91;6209191;23;20027;-68
2023/03/15 10:07:13;;;;;;;14.30;3.22;;;;;;;1.49;99.41;100842.38;6176931;23;20422;-68
2023/03/15 10:09:40;;;;;;;7.65;2.03;;;;;;;2.36;92.81;100841.91;6203763;23;20027;-69
2023/03/15 10:12:12;;;;;;;6.18;1.70;;;;;;;2.69;87.41;100839.72;6185286;23;20051;-66
2023/03/15 10:15:16;;;;;;;16.92;2.40;;;;;;;2.94;84.43;100831.72;6210951;23;20039;-67
2023/03/15 10:17:58;;;;;;;10.35;1.98;;;;;;;4.61;74.47;100848.59;6207976;23;20092;-67
2023/03/15 10:20:26;;;;;;;;;;;;;;;5.76;67.35;100852.75;6209341;23;20479;-66
2023/03/15 10:23:05;;;;;;;7.50;1.92;;;;;;;6.13;64.32;100855.88;6209514;23;19916;-67
2023/03/15 10:25:34;;;;;;;8.85;2.17;;;;;;;5.68;65.13;100850.72;6209915;23;20017;-67
2023/03/15 10:28:08;;;;;;;72.13;5.53;;;;;;;5.43;63.75;100853.69;6208024;23;20118;-66
2023/03/15 10:30:38;;;;;;;18.70;2.55;;;;;;;5.02;66.73;100849.84;6208830;23;20023;-66
2023/03/15 10:33:27;;;;;;;18.95;3.63;;;;;;;4.55;73.42;100851.72;6207257;23;20020;-66
2023/03/15 10:35:54;;;;;;;11.88;2.53;;;;;;;3.92;79.56;100853.78;6182458;23;20024;-66
2023/03/15 10:38:30;;;;;;;13.27;2.20;;;;;;;3.35;87.66;100849.16;6210423;23;20458;-66
2023/03/15 10:40:58;;;;;;;9.13;2.45;;;;;;;3.49;91.17;100854.31;6207524;23;20116;-66
2023/03/15 10:43:31;;;;;;;9.98;3.03;;;;;;;4.01;86.03;100858.44;6208270;23;20055;-66
2023/03/15 10:46:00;;;;;;;13.23;2.53;;;;;;;4.40;83.03;100863.53;6209021;23;20094;-66
2023/03/15 10:48:32;;;;;;;8.30;1.95;;;;;;;5.03;77.09;100864.81;6210005;23;20458;-66
2023/03/15 10:51:12;;;;;;;21.33;2.38;;;;;;;4.91;70.85;100857.81;6209829;23;20046;-67
2023/03/15 10:53:58;;;;;;;12.25;2.35;;;;;;;5.42;68.29;100863.47;6210249;23;20016;-67
2023/03/15 10:56:34;;;;;;;9.68;2.30;;;;;;;6.13;65.36;100869.19;6209186;23;20028;-66
2023/03/15 10:59:00;;;;;;;13.25;2.22;;;;;;;5.87;64.92;100863.38;6209286;23;20027;-66
2023/03/15 11:01:38;;;;;;;10.15;2.33;;;;;;;5.63;63.64;100866.22;6210678;23;20028;-66
2023/03/15 11:04:07;;;;;;;11.68;2.58;;;;;;;4.92;64.92;100859.50;6209751;23;20103;-66
2023/03/15 11:06:42;;;;;;;8.93;2.28;;;;;;;3.80;69.10;100855.56;6210609;23;20043;-67
2023/03/15 11:09:13;;;;;;;10.10;1.83;;;;;;;2.96;72.94;100858.94;6211510;23;20031;-66
2023/03/15 11:11:59;;;;;;;6.80;1.80;;;;;;;3.27;74.52;100860.28;6211549;23;20016;-67
2023/03/15 11:14:33;;;;;;;7.13;1.55;;;;;;;2.96;75.80;100863.41;6210309;23;20103;-66
2023/03/15 11:17:01;;;;;;;10.52;2.08;;;;;;;3.01;76.23;100856.84;6211224;23;20022;-66
2023/03/15 11:19:31;;;;;;;6.35;1.60;;;;;;;2.98;78.05;100854.41;6210573;23;20040;-67
2023/03/15 11:22:00;;;;;;;8.77;1.52;;;;;;;3.22;77.62;100864.25;6211188;23;20096;-67
2023/03/15 11:24:29;;;;;;;8.18;1.45;;;;;;;3.15;73.73;100861.16;6211071;23;20097;-66